Andover, Iowa
Current Conditions -  °F | °C
As of 5:55 AM on Thursday 27 Nov 2014 (Local Time) from KSFY Reporting Station
Overcast Overcast  
Wind Chill: 20°   Ceiling: 3100
Heat Index: 26°   Visibility: 7mi
Dew Point: 21°   Wind: 6mph
Humidity: 81%   Direction: 290°WNW
Pressure: 30.34"   Gusts: NA
Location:  41.98°N, 90.25°W
Report Text: KSFY 271155Z AUTO 29005KT 7SM OVC031 M03/M06 A3034 RMK AO2 T10321061 11032 21060
Loading
Personal Weather Stations






























Interactive Weather Map New forecast layout! Learn more

10-Day Weather Forecast

Advertisements
Track Severe Weather on mobile